createdAt,value
2022-09-22T00:00:24.352Z,1.03
2022-09-22T00:01:45.702Z,0.89
2022-09-22T00:03:07.006Z,0.89
2022-09-22T00:04:28.101Z,1.12
2022-09-22T00:05:49.496Z,1.06
2022-09-22T00:07:10.627Z,1.09
2022-09-22T00:08:33.226Z,0.91
2022-09-22T00:09:54.567Z,1.13
2022-09-22T00:12:29.076Z,0.98
2022-09-22T00:13:52.536Z,1.17
2022-09-22T00:16:37.341Z,2.41
2022-09-22T00:17:59.137Z,1.64
2022-09-22T00:19:24.618Z,1.58
2022-09-22T00:20:45.652Z,1.29
2022-09-22T00:22:06.734Z,1.18
2022-09-22T00:23:27.784Z,1.28
2022-09-22T00:24:48.840Z,1.24
2022-09-22T00:26:13.672Z,1.20
2022-09-22T00:27:35.026Z,0.98
2022-09-22T00:28:56.575Z,1.30
2022-09-22T00:30:18.293Z,1.32
2022-09-22T00:31:40.780Z,1.32
2022-09-22T00:33:02.421Z,1.28
2022-09-22T00:34:25.297Z,1.68
2022-09-22T00:37:10.473Z,2.66
2022-09-22T00:38:32.158Z,1.93
2022-09-22T00:39:53.735Z,2.28
2022-09-22T00:42:27.523Z,2.55
2022-09-22T00:43:53.013Z,2.44
2022-09-22T00:45:14.359Z,2.14
2022-09-22T00:46:36.915Z,3.39
2022-09-22T00:47:58.268Z,2.55
2022-09-22T00:49:22.164Z,2.30
2022-09-22T00:50:43.208Z,1.94
2022-09-22T00:52:04.725Z,1.59
2022-09-22T00:53:26.487Z,1.45
2022-09-22T00:54:47.923Z,2.16
2022-09-22T00:57:34.370Z,1.84
2022-09-22T00:58:58.702Z,1.91
2022-09-22T01:00:20.275Z,1.78
2022-09-22T01:01:41.650Z,3.53
2022-09-22T01:03:05.686Z,3.30
2022-09-22T01:04:26.804Z,2.52
2022-09-22T01:05:50.295Z,3.07
2022-09-22T01:07:11.553Z,2.83
2022-09-22T01:08:32.996Z,2.72
2022-09-22T01:09:54.233Z,3.09
2022-09-22T01:11:15.661Z,2.14
2022-09-22T01:12:36.934Z,2.03
2022-09-22T01:14:04.638Z,1.88
2022-09-22T01:15:33.494Z,1.55
2022-09-22T01:17:07.172Z,1.41
2022-09-22T01:20:24.348Z,1.41
2022-09-22T01:22:14.768Z,1.27
2022-09-22T01:23:59.233Z,1.22
2022-09-22T01:25:34.642Z,1.23
2022-09-22T01:28:59.344Z,0.82
2022-09-22T01:30:25.476Z,1.20
2022-09-22T01:32:02.413Z,1.35
2022-09-22T01:33:39.055Z,1.37
2022-09-22T01:36:46.261Z,1.56
2022-09-22T01:38:11.597Z,1.29
2022-09-22T01:40:57.918Z,1.33
2022-09-22T01:42:25.704Z,1.47
2022-09-22T01:43:57.880Z,1.44
2022-09-22T01:45:21.532Z,1.42
2022-09-22T01:48:11.368Z,1.48
2022-09-22T01:49:34.294Z,1.48
2022-09-22T01:51:07.712Z,1.62
2022-09-22T01:52:30.520Z,1.50
2022-09-22T01:55:18.209Z,1.38
2022-09-22T01:56:39.756Z,1.29
2022-09-22T01:59:24.842Z,1.49
2022-09-22T02:00:52.754Z,1.18
2022-09-22T02:02:32.621Z,1.65
2022-09-22T02:04:03.667Z,1.28
2022-09-22T02:06:55.977Z,1.59
2022-09-22T02:08:33.098Z,1.52
2022-09-22T02:09:54.093Z,2.12
2022-09-22T02:11:15.708Z,1.67
2022-09-22T02:12:36.923Z,1.72
2022-09-22T02:13:58.040Z,1.51
2022-09-22T02:15:19.389Z,1.45
2022-09-22T02:16:40.385Z,1.60
2022-09-22T02:18:04.658Z,1.97
2022-09-22T02:19:31.619Z,1.77
2022-09-22T02:20:53.096Z,1.68
2022-09-22T02:22:14.550Z,1.82
2022-09-22T02:23:35.705Z,1.65
2022-09-22T02:24:57.117Z,1.47
2022-09-22T02:26:21.377Z,1.87
2022-09-22T02:27:42.543Z,1.98
2022-09-22T02:29:08.410Z,1.84
2022-09-22T02:30:31.888Z,2.00
2022-09-22T02:31:53.527Z,1.93
2022-09-22T02:33:14.633Z,1.74
2022-09-22T02:34:36.068Z,1.59
2022-09-22T02:37:14.809Z,1.23
2022-09-22T02:38:39.706Z,1.53
2022-09-22T02:40:21.272Z,1.42
2022-09-22T02:41:57.978Z,1.23
2022-09-22T02:43:39.619Z,1.33
2022-09-22T02:46:40.337Z,1.20
2022-09-22T02:48:07.457Z,1.69
2022-09-22T02:49:29.045Z,1.68
2022-09-22T02:50:50.938Z,1.64
2022-09-22T02:52:12.911Z,1.59
2022-09-22T02:53:34.603Z,1.31
2022-09-22T02:54:56.031Z,1.49
2022-09-22T02:56:17.470Z,1.61
2022-09-22T02:57:38.556Z,1.57
2022-09-22T02:58:59.993Z,1.58
2022-09-22T03:00:21.073Z,1.59
2022-09-22T03:01:42.456Z,1.61
2022-09-22T03:03:04.481Z,1.75
2022-09-22T03:04:25.922Z,1.69
2022-09-22T03:05:47.450Z,1.62
2022-09-22T03:07:08.490Z,1.44
2022-09-22T03:08:29.733Z,1.64
2022-09-22T03:09:51.140Z,1.55
2022-09-22T03:11:12.322Z,1.77
2022-09-22T03:12:33.343Z,1.73
2022-09-22T03:13:54.414Z,1.51
2022-09-22T03:15:16.243Z,1.72
2022-09-22T03:16:37.658Z,2.12
2022-09-22T03:17:58.781Z,2.53
2022-09-22T03:19:20.293Z,2.20
2022-09-22T03:20:41.324Z,1.97
2022-09-22T03:22:02.861Z,1.97
2022-09-22T03:23:24.401Z,1.85
2022-09-22T03:24:45.795Z,1.56
2022-09-22T03:26:07.043Z,1.82
2022-09-22T03:27:28.441Z,2.06
2022-09-22T03:28:49.465Z,1.49
2022-09-22T03:30:11.384Z,1.54
2022-09-22T03:31:32.394Z,1.33
2022-09-22T03:32:53.638Z,1.59
2022-09-22T03:34:15.253Z,1.54
2022-09-22T03:35:36.858Z,1.53
2022-09-22T03:36:58.215Z,1.60
2022-09-22T03:38:19.548Z,1.44
2022-09-22T03:39:40.879Z,1.49
2022-09-22T03:41:02.538Z,1.62
2022-09-22T03:42:23.731Z,1.63
2022-09-22T03:43:45.205Z,1.53
2022-09-22T03:45:07.293Z,1.59
2022-09-22T03:46:28.993Z,1.20
2022-09-22T03:47:50.571Z,1.41
2022-09-22T03:49:11.919Z,1.77
2022-09-22T03:50:34.826Z,1.44
2022-09-22T03:51:56.470Z,1.50
2022-09-22T03:53:18.342Z,1.50
2022-09-22T03:54:39.615Z,2.04
2022-09-22T03:57:16.402Z,1.80
2022-09-22T03:58:38.091Z,1.68
2022-09-22T03:59:59.391Z,3.55
2022-09-22T04:01:21.108Z,1.88
2022-09-22T04:02:42.808Z,1.68
2022-09-22T04:04:04.466Z,1.43
2022-09-22T04:05:25.830Z,1.62
2022-09-22T04:06:47.121Z,1.66
2022-09-22T04:08:08.230Z,1.98
2022-09-22T04:09:29.729Z,1.61
2022-09-22T04:10:50.879Z,1.78
2022-09-22T04:12:12.227Z,1.61
2022-09-22T04:13:33.435Z,1.56
2022-09-22T04:14:54.753Z,3.79
2022-09-22T04:16:17.332Z,2.16
2022-09-22T04:17:38.444Z,2.01
2022-09-22T04:18:59.990Z,1.91
2022-09-22T04:20:21.386Z,1.84
2022-09-22T04:21:42.815Z,2.36
2022-09-22T04:23:04.151Z,1.95
2022-09-22T04:24:25.211Z,2.13
2022-09-22T04:25:46.716Z,2.41
2022-09-22T04:27:19.470Z,2.16
2022-09-22T04:28:30.893Z,2.08
2022-09-22T04:29:51.996Z,2.17
2022-09-22T04:31:13.532Z,2.34
2022-09-22T04:32:35.033Z,2.36
2022-09-22T04:33:56.432Z,2.66
2022-09-22T04:35:17.810Z,4.69
2022-09-22T04:36:39.721Z,3.68
2022-09-22T04:38:01.244Z,3.50
2022-09-22T04:39:23.989Z,3.92
2022-09-22T04:40:45.499Z,4.03
2022-09-22T04:42:06.855Z,4.33
2022-09-22T04:43:28.143Z,3.42
2022-09-22T04:44:50.123Z,3.24
2022-09-22T04:46:12.225Z,2.52
2022-09-22T04:47:33.647Z,2.22
2022-09-22T04:48:56.829Z,2.56
2022-09-22T04:50:19.705Z,2.69
2022-09-22T04:51:41.297Z,3.01
2022-09-22T04:53:04.112Z,2.77
2022-09-22T04:54:25.464Z,2.68
2022-09-22T04:55:48.951Z,2.66
2022-09-22T04:57:10.787Z,3.23
2022-09-22T04:58:32.121Z,3.21
2022-09-22T04:59:53.637Z,3.17
2022-09-22T05:01:14.850Z,3.03
2022-09-22T05:02:35.993Z,3.48
2022-09-22T05:03:57.679Z,3.59
2022-09-22T05:05:18.961Z,3.34
2022-09-22T05:06:40.890Z,3.12
2022-09-22T05:08:04.354Z,3.45
2022-09-22T05:09:25.555Z,3.31
2022-09-22T05:10:47.241Z,3.19
2022-09-22T05:12:08.510Z,3.40
2022-09-22T05:13:29.566Z,3.43
2022-09-22T05:14:51.069Z,3.60
2022-09-22T05:16:16.293Z,4.11
2022-09-22T05:17:39.839Z,4.13
2022-09-22T05:19:01.039Z,3.29
2022-09-22T05:20:22.399Z,3.43
2022-09-22T05:21:43.655Z,3.53
2022-09-22T05:23:06.802Z,4.31
2022-09-22T05:24:28.166Z,3.36
2022-09-22T05:25:49.576Z,2.87
2022-09-22T05:27:11.108Z,3.08
2022-09-22T05:28:32.370Z,3.18
2022-09-22T05:29:53.717Z,3.17
2022-09-22T05:31:15.209Z,3.29
2022-09-22T05:32:36.504Z,3.32
2022-09-22T05:33:57.817Z,3.30
2022-09-22T05:35:22.974Z,3.77
2022-09-22T05:36:44.239Z,3.34
2022-09-22T05:38:05.520Z,3.53
2022-09-22T05:39:27.066Z,4.07
2022-09-22T05:40:48.174Z,3.80
2022-09-22T05:42:11.115Z,3.69
2022-09-22T05:43:32.988Z,4.42
2022-09-22T05:44:54.316Z,4.14
2022-09-22T05:46:16.654Z,3.84
2022-09-22T05:47:38.726Z,3.91
2022-09-22T05:49:01.570Z,2.79
2022-09-22T05:50:22.691Z,4.04
2022-09-22T05:51:44.189Z,3.91
2022-09-22T05:53:07.285Z,3.89
2022-09-22T05:55:50.865Z,4.46
2022-09-22T05:57:12.026Z,3.94
2022-09-22T05:58:33.691Z,4.68
2022-09-22T05:59:55.316Z,4.13
2022-09-22T06:01:17.009Z,4.46
2022-09-22T06:02:38.715Z,3.57
2022-09-22T06:04:00.202Z,4.29
2022-09-22T06:05:21.707Z,4.33
2022-09-22T06:06:43.379Z,4.67
2022-09-22T06:08:04.988Z,3.85
2022-09-22T06:09:26.150Z,3.55
2022-09-22T06:10:47.900Z,3.23
2022-09-22T06:12:09.399Z,2.99
2022-09-22T06:13:30.469Z,3.64
2022-09-22T06:14:51.807Z,3.68
2022-09-22T06:16:13.396Z,3.66
2022-09-22T06:17:34.961Z,3.77
2022-09-22T06:18:56.402Z,3.65
2022-09-22T06:20:17.811Z,3.46
2022-09-22T06:21:39.320Z,3.54
2022-09-22T06:23:00.716Z,3.77
2022-09-22T06:24:21.863Z,3.44
2022-09-22T06:25:43.667Z,3.77
2022-09-22T06:27:05.223Z,3.97
2022-09-22T06:28:26.875Z,3.61
2022-09-22T06:29:48.199Z,4.15
2022-09-22T06:31:10.105Z,3.86
2022-09-22T06:32:31.611Z,3.92
2022-09-22T06:33:53.424Z,3.73
2022-09-22T06:35:14.734Z,3.96
2022-09-22T06:36:37.012Z,3.48
2022-09-22T06:37:58.643Z,4.24
2022-09-22T06:39:19.780Z,4.22
2022-09-22T06:40:44.041Z,4.44
2022-09-22T06:42:06.020Z,4.07
2022-09-22T06:43:28.235Z,4.36
2022-09-22T06:44:50.004Z,4.22
2022-09-22T06:46:11.954Z,3.05
2022-09-22T06:47:34.989Z,4.71
2022-09-22T06:49:00.067Z,4.03
2022-09-22T06:50:22.445Z,4.10
2022-09-22T06:51:44.115Z,4.07
2022-09-22T06:53:06.490Z,3.83
2022-09-22T06:54:28.378Z,3.74
2022-09-22T06:55:52.363Z,4.02
2022-09-22T06:57:13.536Z,4.14
2022-09-22T06:58:52.561Z,4.38
2022-09-22T06:59:59.080Z,4.07
2022-09-22T07:01:20.903Z,4.02
2022-09-22T07:03:56.553Z,4.53
2022-09-22T07:05:18.009Z,4.84
2022-09-22T07:06:40.425Z,4.49
2022-09-22T07:08:03.934Z,3.77
2022-09-22T07:09:25.511Z,3.49
2022-09-22T07:10:54.864Z,3.10
2022-09-22T07:12:16.515Z,3.32
2022-09-22T07:13:40.113Z,3.76
2022-09-22T07:15:01.605Z,3.42
2022-09-22T07:16:24.330Z,4.18
2022-09-22T07:19:07.218Z,4.68
2022-09-22T07:20:28.650Z,3.86
2022-09-22T07:21:50.532Z,4.37
2022-09-22T07:23:30.556Z,4.98
2022-09-22T07:24:52.063Z,4.52
2022-09-22T07:26:15.705Z,4.10
2022-09-22T07:27:38.500Z,4.93
2022-09-22T07:29:02.231Z,3.34
2022-09-22T07:30:26.701Z,2.88
2022-09-22T07:31:55.268Z,3.52
2022-09-22T07:34:26.563Z,4.28
2022-09-22T07:35:47.930Z,4.15
2022-09-22T07:37:09.911Z,4.99
2022-09-22T07:38:31.522Z,4.72
2022-09-22T07:39:55.948Z,4.10
2022-09-22T07:41:29.001Z,4.70
2022-09-22T07:42:50.739Z,4.52
2022-09-22T07:44:14.679Z,4.92
2022-09-22T07:45:38.349Z,5.44
2022-09-22T07:47:00.043Z,5.89
2022-09-22T07:48:23.209Z,5.59
2022-09-22T07:49:44.401Z,7.00
2022-09-22T07:51:07.557Z,5.38
2022-09-22T07:52:28.588Z,5.91
2022-09-22T07:53:53.714Z,4.17
2022-09-22T07:55:14.818Z,3.95
2022-09-22T07:57:57.849Z,3.86
2022-09-22T07:59:19.280Z,3.99
2022-09-22T08:00:40.950Z,4.23
2022-09-22T08:02:02.107Z,5.67
2022-09-22T08:03:23.377Z,5.16
2022-09-22T08:04:44.770Z,3.94
2022-09-22T08:06:07.105Z,4.52
2022-09-22T08:07:29.705Z,4.52
2022-09-22T08:08:51.508Z,4.89
2022-09-22T08:10:13.387Z,4.73
2022-09-22T08:11:34.976Z,4.51
2022-09-22T08:12:56.255Z,3.92
2022-09-22T08:15:35.012Z,4.19
2022-09-22T08:16:59.785Z,4.00
2022-09-22T08:18:20.857Z,3.48
2022-09-22T08:19:42.148Z,3.27
2022-09-22T08:21:03.596Z,3.69
2022-09-22T08:22:25.015Z,3.56
2022-09-22T08:23:46.397Z,3.93
2022-09-22T08:25:08.268Z,4.49
2022-09-22T08:26:29.792Z,4.08
2022-09-22T08:29:12.095Z,3.87
2022-09-22T08:30:33.656Z,4.41
2022-09-22T08:31:55.047Z,4.07
2022-09-22T08:33:16.583Z,6.24
2022-09-22T08:34:38.645Z,4.14
2022-09-22T08:36:00.326Z,3.59
2022-09-22T08:37:21.513Z,5.08
2022-09-22T08:38:43.217Z,4.34
2022-09-22T08:40:05.649Z,4.69
2022-09-22T08:41:49.588Z,4.39
2022-09-22T08:43:11.081Z,4.04
2022-09-22T08:44:38.853Z,4.61
2022-09-22T08:46:02.722Z,3.98
2022-09-22T08:48:38.861Z,2.78
2022-09-22T08:50:02.463Z,3.48
2022-09-22T08:51:29.123Z,4.58
2022-09-22T08:52:51.375Z,4.22
2022-09-22T08:54:12.722Z,4.77
2022-09-22T08:55:36.075Z,4.73
2022-09-22T08:57:05.042Z,4.86
2022-09-22T08:58:39.002Z,4.05
2022-09-22T09:02:55.414Z,3.15
2022-09-22T09:04:36.152Z,6.93
2022-09-22T09:06:09.998Z,8.37
2022-09-22T09:07:53.433Z,4.26
2022-09-22T09:09:18.946Z,3.98
2022-09-22T09:11:07.836Z,3.43
2022-09-22T09:12:35.898Z,4.69
2022-09-22T09:14:03.449Z,4.35
2022-09-22T09:16:55.698Z,4.46
2022-09-22T09:18:19.656Z,5.47
2022-09-22T09:21:09.811Z,4.26
2022-09-22T09:25:37.521Z,3.51
2022-09-22T09:27:04.240Z,3.69
2022-09-22T09:30:15.213Z,3.62
2022-09-22T09:31:41.605Z,3.47
2022-09-22T09:33:03.181Z,4.62
2022-09-22T09:34:28.507Z,4.36
2022-09-22T09:35:51.858Z,3.87
2022-09-22T09:37:16.177Z,3.12
2022-09-22T09:38:40.875Z,3.72
2022-09-22T09:41:22.428Z,2.94
2022-09-22T09:42:45.549Z,3.91
2022-09-22T09:46:51.598Z,4.29
2022-09-22T09:48:28.652Z,4.36
2022-09-22T09:49:52.805Z,4.56
2022-09-22T09:51:13.277Z,4.40
2022-09-22T09:52:35.142Z,4.11
2022-09-22T09:53:56.549Z,3.49
2022-09-22T09:55:26.674Z,3.63
2022-09-22T09:57:07.505Z,2.79
2022-09-22T09:58:28.911Z,3.21
2022-09-22T10:00:17.643Z,3.09
2022-09-22T10:01:41.400Z,3.00
2022-09-22T10:03:05.754Z,3.22
2022-09-22T10:05:48.914Z,2.03
2022-09-22T10:07:17.332Z,2.83
2022-09-22T10:08:43.383Z,2.93
2022-09-22T10:10:33.017Z,2.82
2022-09-22T10:11:58.765Z,2.50
2022-09-22T10:13:31.968Z,3.24
2022-09-22T10:14:57.671Z,2.56
2022-09-22T10:16:22.018Z,2.40
2022-09-22T10:19:04.510Z,2.16
2022-09-22T10:20:27.359Z,2.49
2022-09-22T10:21:48.959Z,2.89
2022-09-22T10:24:36.419Z,3.40
2022-09-22T10:27:38.027Z,1.94
2022-09-22T10:29:17.083Z,2.76
2022-09-22T10:30:39.016Z,3.77
2022-09-22T10:32:06.920Z,2.87
2022-09-22T10:33:28.194Z,3.17
2022-09-22T10:34:50.195Z,3.03
2022-09-22T10:36:13.249Z,3.14
2022-09-22T10:37:34.798Z,3.95
2022-09-22T10:38:59.861Z,2.71
2022-09-22T10:40:21.664Z,2.47
2022-09-22T10:41:43.039Z,2.30
2022-09-22T10:43:04.259Z,2.45
2022-09-22T10:44:48.525Z,2.54
2022-09-22T10:46:11.585Z,2.49
2022-09-22T10:47:45.325Z,2.41
2022-09-22T10:49:12.006Z,2.61
2022-09-22T10:50:39.871Z,3.46
2022-09-22T10:52:23.032Z,3.88
2022-09-22T10:53:54.071Z,3.65
2022-09-22T10:55:29.951Z,3.13
2022-09-22T10:56:56.325Z,2.85
2022-09-22T10:58:49.895Z,4.68
2022-09-22T11:00:15.570Z,2.54
2022-09-22T11:01:49.612Z,2.28
2022-09-22T11:06:25.248Z,1.76
2022-09-22T11:08:05.253Z,2.21
2022-09-22T11:09:30.336Z,1.98
2022-09-22T11:11:24.241Z,2.83
2022-09-22T11:14:58.073Z,2.20
2022-09-22T11:18:14.121Z,2.49
2022-09-22T11:19:53.755Z,1.81
2022-09-22T11:21:33.911Z,2.31
2022-09-22T11:23:24.653Z,2.03
2022-09-22T11:25:11.037Z,2.46
2022-09-22T11:26:46.898Z,2.66
2022-09-22T11:28:21.075Z,2.37
2022-09-22T11:30:01.373Z,2.07
2022-09-22T11:33:03.581Z,2.27
2022-09-22T11:34:34.260Z,2.31
2022-09-22T11:37:47.906Z,2.96
2022-09-22T11:41:16.778Z,2.03
2022-09-22T11:43:00.655Z,2.27
2022-09-22T11:44:34.799Z,2.23
2022-09-22T11:47:27.071Z,1.68
2022-09-22T11:49:11.863Z,1.92
2022-09-22T11:50:53.554Z,1.98
2022-09-22T11:52:32.882Z,2.54
2022-09-22T11:54:00.835Z,2.19
2022-09-22T11:55:28.635Z,2.41
2022-09-22T11:56:51.273Z,2.24
2022-09-22T11:58:21.533Z,2.03
2022-09-22T11:59:48.246Z,1.98
2022-09-22T12:01:21.085Z,1.87
2022-09-22T12:03:02.439Z,1.69
2022-09-22T12:04:48.938Z,1.65
2022-09-22T12:06:13.781Z,2.29
2022-09-22T12:09:18.065Z,1.56
2022-09-22T12:12:03.062Z,2.21
2022-09-22T12:13:25.809Z,1.62
2022-09-22T12:15:00.537Z,1.50
2022-09-22T12:17:42.693Z,1.62
2022-09-22T12:19:22.711Z,1.38
2022-09-22T12:20:47.971Z,2.10
2022-09-22T12:22:31.247Z,2.01
2022-09-22T12:23:52.839Z,1.97
2022-09-22T12:25:25.872Z,1.71
2022-09-22T12:26:41.914Z,2.11
2022-09-22T12:28:03.034Z,2.04
2022-09-22T12:29:26.415Z,1.72
2022-09-22T12:32:22.859Z,1.44
2022-09-22T12:33:54.292Z,1.62
2022-09-22T12:35:20.879Z,1.52
2022-09-22T12:36:42.198Z,1.31
2022-09-22T12:38:03.666Z,1.92
2022-09-22T12:39:29.372Z,1.52
2022-09-22T12:40:53.601Z,1.63
2022-09-22T12:43:43.125Z,1.21
2022-09-22T12:46:38.302Z,1.58
2022-09-22T12:48:01.427Z,2.55
2022-09-22T12:49:26.812Z,2.76
2022-09-22T12:50:48.226Z,1.76
2022-09-22T12:54:25.066Z,1.58
2022-09-22T12:55:46.314Z,3.38
2022-09-22T12:57:24.796Z,5.24
2022-09-22T12:58:48.141Z,4.05
2022-09-22T13:00:27.828Z,2.62
2022-09-22T13:01:52.271Z,2.14
2022-09-22T13:03:29.513Z,1.67
2022-09-22T13:04:57.314Z,1.69
2022-09-22T13:06:25.639Z,1.64
2022-09-22T13:07:46.850Z,1.70
2022-09-22T13:09:09.015Z,1.34
2022-09-22T13:10:36.960Z,1.59
2022-09-22T13:12:14.419Z,1.78
2022-09-22T13:13:41.679Z,1.47
2022-09-22T13:15:16.142Z,1.68
2022-09-22T13:16:38.869Z,2.36
2022-09-22T13:18:00.267Z,1.81
2022-09-22T13:19:22.293Z,1.72
2022-09-22T13:21:54.974Z,1.43
2022-09-22T13:23:16.391Z,1.62
2022-09-22T13:24:37.788Z,1.94
2022-09-22T13:26:12.801Z,2.38
2022-09-22T13:27:34.089Z,1.87
2022-09-22T13:29:19.763Z,1.60
2022-09-22T13:30:43.242Z,1.92
2022-09-22T13:32:19.015Z,2.33
2022-09-22T13:33:40.643Z,2.08
2022-09-22T13:35:02.081Z,2.17
2022-09-22T13:36:23.663Z,2.16
2022-09-22T13:37:45.005Z,2.04
2022-09-22T13:39:06.655Z,1.41
2022-09-22T13:40:30.409Z,1.85
2022-09-22T13:44:48.657Z,1.83
2022-09-22T13:46:37.964Z,1.81
2022-09-22T13:49:44.281Z,2.09
2022-09-22T13:51:06.587Z,2.53
2022-09-22T13:52:30.160Z,1.61
2022-09-22T13:53:54.628Z,1.64
2022-09-22T13:56:40.048Z,2.54
2022-09-22T13:58:01.763Z,2.60
2022-09-22T13:59:24.153Z,2.52
2022-09-22T14:01:12.198Z,3.16
2022-09-22T14:02:14.244Z,2.54
2022-09-22T14:03:37.163Z,3.59
2022-09-22T14:06:22.514Z,2.38
2022-09-22T14:08:07.673Z,2.93
2022-09-22T14:09:08.941Z,2.11
2022-09-22T14:10:33.605Z,2.52
2022-09-22T14:11:54.919Z,3.38
2022-09-22T14:13:38.123Z,4.41
2022-09-22T14:16:59.162Z,3.06
2022-09-22T14:18:25.930Z,4.15
2022-09-22T14:20:01.199Z,4.01
2022-09-22T14:21:22.874Z,4.39
2022-09-22T14:22:46.532Z,4.88
2022-09-22T14:24:11.101Z,5.79
2022-09-22T14:25:39.115Z,5.54
2022-09-22T14:27:04.208Z,5.19
2022-09-22T14:28:27.896Z,3.47
2022-09-22T14:29:50.616Z,4.65
2022-09-22T14:31:15.965Z,3.41
2022-09-22T14:32:41.740Z,3.14
2022-09-22T14:34:02.948Z,3.37
2022-09-22T14:35:32.466Z,3.36
2022-09-22T14:36:54.003Z,3.37
2022-09-22T14:39:36.316Z,3.39
2022-09-22T14:40:58.075Z,4.57
2022-09-22T14:43:45.967Z,7.93
2022-09-22T14:45:11.548Z,7.05
2022-09-22T14:46:38.980Z,7.46
2022-09-22T14:48:18.096Z,6.72
2022-09-22T14:49:41.198Z,4.16
2022-09-22T14:52:28.370Z,4.98
2022-09-22T14:53:52.641Z,4.05
2022-09-22T14:56:34.557Z,5.57
2022-09-22T14:57:55.954Z,5.71
2022-09-22T14:59:18.368Z,4.21
2022-09-22T15:02:10.778Z,2.88
2022-09-22T15:03:31.934Z,3.54
2022-09-22T15:04:54.657Z,3.12
2022-09-22T15:07:31.866Z,3.44
2022-09-22T15:08:53.601Z,4.01
2022-09-22T15:10:23.934Z,5.37
2022-09-22T15:11:53.192Z,4.79
2022-09-22T15:13:28.282Z,5.21
2022-09-22T15:14:49.368Z,5.63
2022-09-22T15:16:36.363Z,4.12
2022-09-22T15:17:58.365Z,4.46
2022-09-22T15:19:19.550Z,3.19
2022-09-22T15:21:03.536Z,5.52
2022-09-22T15:22:25.428Z,4.18
2022-09-22T15:23:46.590Z,4.64
2022-09-22T15:25:12.654Z,4.52
2022-09-22T15:26:34.579Z,4.92
2022-09-22T15:27:55.764Z,4.98
2022-09-22T15:29:16.979Z,4.70
2022-09-22T15:30:38.580Z,5.58
2022-09-22T15:32:02.838Z,4.38
2022-09-22T15:33:24.492Z,3.81
2022-09-22T15:34:46.698Z,3.83
2022-09-22T15:37:23.349Z,3.91
2022-09-22T15:38:45.974Z,3.77
2022-09-22T15:40:21.752Z,3.89
2022-09-22T15:41:44.023Z,3.98
2022-09-22T15:43:13.525Z,4.63
2022-09-22T15:44:30.108Z,5.14
2022-09-22T15:47:13.586Z,3.14
2022-09-22T15:48:35.840Z,4.17
2022-09-22T15:49:58.043Z,4.62
2022-09-22T15:51:19.222Z,4.08
2022-09-22T15:52:41.832Z,4.59
2022-09-22T15:55:20.128Z,3.94
2022-09-22T15:56:43.098Z,5.55
2022-09-22T15:58:04.779Z,4.06
2022-09-22T15:59:27.387Z,3.58
2022-09-22T16:02:10.953Z,4.57
2022-09-22T16:03:36.905Z,4.13
2022-09-22T16:04:57.108Z,5.15
2022-09-22T16:06:18.685Z,3.70
2022-09-22T16:07:41.752Z,3.39
2022-09-22T16:09:03.437Z,4.16
2022-09-22T16:10:24.495Z,3.61
2022-09-22T16:11:45.894Z,4.84
2022-09-22T16:13:10.094Z,7.03
2022-09-22T16:14:31.096Z,3.68
2022-09-22T16:15:52.104Z,3.12
2022-09-22T16:17:13.202Z,2.81
2022-09-22T16:18:34.634Z,5.68
2022-09-22T16:19:55.931Z,2.78
2022-09-22T16:21:33.244Z,2.52
2022-09-22T16:22:54.444Z,2.27
2022-09-22T16:24:15.842Z,1.93
2022-09-22T16:26:49.029Z,1.71
2022-09-22T16:28:12.580Z,1.27
2022-09-22T16:29:36.249Z,1.51
2022-09-22T16:31:05.631Z,1.40
2022-09-22T16:32:27.005Z,2.83
2022-09-22T16:33:52.290Z,3.76
2022-09-22T16:35:13.655Z,3.76
2022-09-22T16:36:35.541Z,4.82
2022-09-22T16:37:56.738Z,4.30
2022-09-22T16:39:18.685Z,4.02
2022-09-22T16:40:42.974Z,3.63
2022-09-22T16:42:04.324Z,2.79
2022-09-22T16:43:27.539Z,3.14
2022-09-22T16:44:49.511Z,3.69
2022-09-22T16:46:11.345Z,3.77
2022-09-22T16:47:32.747Z,3.43
2022-09-22T16:48:56.749Z,3.03
2022-09-22T16:50:18.456Z,2.52
2022-09-22T16:53:07.881Z,1.84
2022-09-22T16:54:31.015Z,1.71
2022-09-22T16:55:52.950Z,1.40
2022-09-22T16:57:14.965Z,1.41
2022-09-22T16:58:35.976Z,1.58
2022-09-22T17:00:00.405Z,1.48
2022-09-22T17:01:21.446Z,1.50
2022-09-22T17:02:43.114Z,1.48
2022-09-22T17:04:05.599Z,1.42
2022-09-22T17:05:28.265Z,1.75
2022-09-22T17:06:49.609Z,1.42
2022-09-22T17:08:11.783Z,1.41
2022-09-22T17:09:34.432Z,1.11
2022-09-22T17:10:55.859Z,1.28
2022-09-22T17:12:17.230Z,1.13
2022-09-22T17:14:51.278Z,2.03
2022-09-22T17:16:20.004Z,1.54
2022-09-22T17:17:41.211Z,1.26
2022-09-22T17:20:17.709Z,0.97
2022-09-22T17:21:39.475Z,1.05
2022-09-22T17:23:00.531Z,0.92
2022-09-22T17:24:21.995Z,0.89
2022-09-22T17:25:45.369Z,0.97
2022-09-22T17:27:06.679Z,3.69
2022-09-22T17:28:28.972Z,3.92
2022-09-22T17:29:50.493Z,3.48
2022-09-22T17:31:12.087Z,2.64
2022-09-22T17:32:33.649Z,1.00
2022-09-22T17:33:55.070Z,0.85
2022-09-22T17:35:17.776Z,1.16
2022-09-22T17:36:39.083Z,1.25
2022-09-22T17:38:00.465Z,1.14
2022-09-22T17:40:34.118Z,1.08
2022-09-22T17:41:55.426Z,8.66
2022-09-22T17:43:16.861Z,1.43
2022-09-22T17:44:37.980Z,2.33
2022-09-22T17:45:59.851Z,1.82
2022-09-22T17:47:21.312Z,6.65
2022-09-22T17:48:43.131Z,2.79
2022-09-22T17:50:05.235Z,1.48
2022-09-22T17:51:31.855Z,1.04
2022-09-22T17:52:53.045Z,1.03
2022-09-22T17:54:41.427Z,1.07
2022-09-22T17:56:02.783Z,1.22
2022-09-22T17:57:28.275Z,0.95
2022-09-22T17:58:49.318Z,0.93
2022-09-22T18:01:26.101Z,1.43
2022-09-22T18:02:48.315Z,1.10
2022-09-22T18:04:09.324Z,1.24
2022-09-22T18:05:33.312Z,1.09
2022-09-22T18:06:56.022Z,1.14
2022-09-22T18:08:19.156Z,0.85
2022-09-22T18:11:01.179Z,0.88
2022-09-22T18:12:22.980Z,1.02
2022-09-22T18:13:44.164Z,2.48
2022-09-22T18:15:06.304Z,1.61
2022-09-22T18:16:27.942Z,5.08
2022-09-22T18:19:28.970Z,1.67
2022-09-22T18:20:50.553Z,1.50
2022-09-22T18:22:13.230Z,1.49
2022-09-22T18:23:34.347Z,1.26
2022-09-22T18:24:56.107Z,1.21
2022-09-22T18:26:18.391Z,1.51
2022-09-22T18:27:39.388Z,1.36
2022-09-22T18:29:01.313Z,1.23
2022-09-22T18:30:23.081Z,1.17
2022-09-22T18:31:44.815Z,1.06
2022-09-22T18:33:05.978Z,1.04
2022-09-22T18:34:28.255Z,2.54
2022-09-22T18:35:49.381Z,3.19
2022-09-22T18:37:11.004Z,2.26
2022-09-22T18:38:33.685Z,3.19
2022-09-22T18:39:55.095Z,2.87
2022-09-22T18:41:19.733Z,1.88
2022-09-22T18:42:39.990Z,1.78
2022-09-22T18:44:01.411Z,1.33
2022-09-22T18:46:22.145Z,1.37
2022-09-22T18:47:43.869Z,1.29
2022-09-22T18:49:05.275Z,1.31
2022-09-22T18:50:26.721Z,1.38
2022-09-22T18:51:48.120Z,1.27
2022-09-22T18:53:11.372Z,1.27
2022-09-22T18:54:32.910Z,2.26
2022-09-22T18:55:53.999Z,2.94
2022-09-22T18:57:17.765Z,1.33
2022-09-22T18:58:39.184Z,1.57
2022-09-22T19:00:02.051Z,1.63
2022-09-22T19:01:23.192Z,1.87
2022-09-22T19:02:44.808Z,2.92
2022-09-22T19:04:08.410Z,2.89
2022-09-22T19:05:33.890Z,6.80
2022-09-22T19:06:57.380Z,3.53
2022-09-22T19:08:19.878Z,5.35
2022-09-22T19:09:41.786Z,1.93
2022-09-22T19:11:02.731Z,1.73
2022-09-22T19:12:24.197Z,1.58
2022-09-22T19:13:45.727Z,1.51
2022-09-22T19:15:09.217Z,3.09
2022-09-22T19:17:53.358Z,5.82
2022-09-22T19:19:15.033Z,2.69
2022-09-22T19:20:36.406Z,1.73
2022-09-22T19:21:57.903Z,1.63
2022-09-22T19:23:20.229Z,2.06
2022-09-22T19:24:41.571Z,2.47
2022-09-22T19:26:02.922Z,2.03
2022-09-22T19:27:23.972Z,1.74
2022-09-22T19:28:45.831Z,1.61
2022-09-22T19:30:08.495Z,1.63
2022-09-22T19:31:30.525Z,1.84
2022-09-22T19:32:51.976Z,1.44
2022-09-22T19:34:13.434Z,1.35
2022-09-22T19:35:39.046Z,1.33
2022-09-22T19:36:58.986Z,1.33
2022-09-22T19:38:21.889Z,1.21
2022-09-22T19:39:43.220Z,1.46
2022-09-22T19:41:05.775Z,1.26
2022-09-22T19:42:26.790Z,1.36
2022-09-22T19:43:48.444Z,1.58
2022-09-22T19:45:10.093Z,1.80
2022-09-22T19:46:31.423Z,1.45
2022-09-22T19:47:52.757Z,1.57
2022-09-22T19:49:16.155Z,1.51
2022-09-22T19:50:39.564Z,1.36
2022-09-22T19:52:02.166Z,1.42
2022-09-22T19:53:23.540Z,2.11
2022-09-22T19:54:45.165Z,1.49
2022-09-22T19:56:06.787Z,1.02
2022-09-22T19:57:27.746Z,1.38
2022-09-22T19:58:49.793Z,1.38
2022-09-22T20:00:16.154Z,1.34
2022-09-22T20:01:38.989Z,1.37
2022-09-22T20:04:21.149Z,1.44
2022-09-22T20:05:42.846Z,1.89
2022-09-22T20:07:04.277Z,2.96
2022-09-22T20:08:25.807Z,2.51
2022-09-22T20:09:47.155Z,2.21
2022-09-22T20:11:25.673Z,2.27
2022-09-22T20:12:32.269Z,1.61
2022-09-22T20:13:53.911Z,1.54
2022-09-22T20:15:15.089Z,1.51
2022-09-22T20:16:36.978Z,1.46
2022-09-22T20:17:58.446Z,1.44
2022-09-22T20:19:20.964Z,1.41
2022-09-22T20:20:42.579Z,1.54
2022-09-22T20:22:24.058Z,1.46
2022-09-22T20:23:45.350Z,1.72
2022-09-22T20:25:08.770Z,1.48
2022-09-22T20:26:30.940Z,1.88
2022-09-22T20:27:52.024Z,1.42
2022-09-22T20:29:14.666Z,1.59
2022-09-22T20:30:36.424Z,1.71
2022-09-22T20:31:57.679Z,1.48
2022-09-22T20:33:20.794Z,1.52
2022-09-22T20:34:41.819Z,2.61
2022-09-22T20:36:03.590Z,2.64
2022-09-22T20:37:25.051Z,2.16